createdAt,value
2018-02-10T00:01:48.158Z,1.40
2018-02-10T00:04:16.238Z,1.30
2018-02-10T00:06:44.726Z,1.20
2018-02-10T00:09:12.901Z,1.30
2018-02-10T00:11:40.943Z,1.30
2018-02-10T00:14:09.811Z,1.40
2018-02-10T00:16:37.890Z,1.30
2018-02-10T00:19:05.958Z,1.20
2018-02-10T00:21:34.035Z,1.20
2018-02-10T00:24:02.117Z,1.20
2018-02-10T00:26:30.193Z,1.20
2018-02-10T00:28:58.251Z,1.10
2018-02-10T00:31:27.073Z,1.00
2018-02-10T00:33:55.233Z,1.10
2018-02-10T00:36:25.186Z,1.10
2018-02-10T00:38:55.134Z,1.20
2018-02-10T00:41:24.313Z,1.40
2018-02-10T00:43:54.285Z,1.20
2018-02-10T00:46:22.361Z,1.20
2018-02-10T00:48:50.439Z,1.10
2018-02-10T00:51:18.507Z,1.10
2018-02-10T00:53:46.600Z,1.00
2018-02-10T00:56:14.773Z,0.90
2018-02-10T00:58:42.825Z,0.70
2018-02-10T01:01:10.893Z,0.90
2018-02-10T01:03:38.952Z,0.80
2018-02-10T01:06:07.829Z,0.80
2018-02-10T01:08:35.841Z,0.80
2018-02-10T01:11:03.916Z,1.00
2018-02-10T01:13:31.968Z,0.90
2018-02-10T01:16:00.805Z,0.90
2018-02-10T01:18:28.924Z,1.00
2018-02-10T01:20:56.985Z,1.10
2018-02-10T01:23:25.046Z,0.90
2018-02-10T01:25:53.126Z,0.80
2018-02-10T01:28:21.305Z,0.80
2018-02-10T01:30:49.358Z,1.10
2018-02-10T01:33:17.421Z,1.10
2018-02-10T01:35:45.486Z,1.00
2018-02-10T01:38:13.609Z,1.10
2018-02-10T01:40:41.671Z,1.10
2018-02-10T01:43:09.749Z,1.20
2018-02-10T01:45:37.817Z,1.10
2018-02-10T01:48:05.882Z,1.10
2018-02-10T01:50:33.943Z,1.10
2018-02-10T01:53:01.997Z,1.10
2018-02-10T01:55:30.849Z,1.10
2018-02-10T01:57:58.938Z,1.10
2018-02-10T02:00:27.013Z,1.00
2018-02-10T02:02:55.294Z,1.00
2018-02-10T02:05:23.362Z,1.20
2018-02-10T02:07:51.445Z,1.00
2018-02-10T02:10:19.512Z,1.10
2018-02-10T02:12:47.597Z,1.10
2018-02-10T02:15:15.672Z,1.10
2018-02-10T02:17:43.730Z,1.10
2018-02-10T02:20:11.796Z,1.20
2018-02-10T02:22:39.897Z,1.20
2018-02-10T02:25:07.949Z,1.30
2018-02-10T02:27:36.054Z,1.20
2018-02-10T02:30:04.109Z,1.20
2018-02-10T02:32:32.208Z,1.40
2018-02-10T02:35:00.281Z,1.30
2018-02-10T02:37:28.460Z,1.30
2018-02-10T02:39:56.523Z,1.40
2018-02-10T02:42:25.784Z,1.50
2018-02-10T02:44:53.830Z,1.40
2018-02-10T02:47:21.893Z,1.30
2018-02-10T02:49:49.965Z,1.20
2018-02-10T02:52:18.056Z,1.30
2018-02-10T02:54:46.129Z,1.20
2018-02-10T02:57:14.206Z,1.10
2018-02-10T02:59:42.269Z,1.00
2018-02-10T03:02:10.357Z,0.90
2018-02-10T03:04:38.530Z,1.10
2018-02-10T03:07:06.601Z,0.90
2018-02-10T03:09:34.685Z,0.80
2018-02-10T03:12:02.753Z,1.00
2018-02-10T03:14:30.813Z,0.90
2018-02-10T03:16:58.882Z,1.00
2018-02-10T03:19:26.982Z,0.90
2018-02-10T03:21:56.697Z,0.90
2018-02-10T03:24:25.877Z,0.90
2018-02-10T03:26:53.942Z,0.80
2018-02-10T03:29:22.113Z,0.80
2018-02-10T03:31:50.131Z,0.70
2018-02-10T03:34:18.689Z,0.60
2018-02-10T03:36:46.750Z,0.70
2018-02-10T03:39:14.802Z,0.80
2018-02-10T03:41:43.630Z,0.90
2018-02-10T03:44:11.742Z,0.90
2018-02-10T03:46:39.801Z,1.20
2018-02-10T03:49:08.345Z,1.00
2018-02-10T03:51:37.197Z,1.00
2018-02-10T03:54:05.289Z,1.10
2018-02-10T03:56:33.355Z,1.10
2018-02-10T03:59:01.423Z,1.20
2018-02-10T04:01:29.487Z,1.10
2018-02-10T04:03:57.548Z,0.80
2018-02-10T04:06:26.360Z,1.10
2018-02-10T04:08:54.421Z,1.20
2018-02-10T04:11:22.521Z,1.10
2018-02-10T04:13:50.589Z,1.00
2018-02-10T04:16:18.645Z,1.00
2018-02-10T04:18:46.745Z,0.90
2018-02-10T04:21:14.808Z,1.10
2018-02-10T04:23:42.875Z,1.00
2018-02-10T04:26:10.979Z,0.70
2018-02-10T04:28:39.053Z,0.70
2018-02-10T04:31:07.145Z,0.80
2018-02-10T04:33:35.305Z,0.90
2018-02-10T04:36:03.367Z,0.90
2018-02-10T04:38:31.433Z,1.00
2018-02-10T04:40:59.499Z,0.80
2018-02-10T04:43:27.617Z,0.70
2018-02-10T04:45:56.618Z,0.80
2018-02-10T04:48:24.695Z,0.90
2018-02-10T04:50:52.762Z,0.90
2018-02-10T04:53:20.818Z,1.00
2018-02-10T04:55:48.901Z,1.00
2018-02-10T04:58:16.964Z,1.10
2018-02-10T05:00:45.035Z,0.90
2018-02-10T05:03:13.103Z,1.10
2018-02-10T05:05:41.938Z,1.00
2018-02-10T05:08:09.998Z,0.80
2018-02-10T05:10:38.082Z,0.80
2018-02-10T05:13:06.141Z,0.80
2018-02-10T05:15:34.348Z,0.80
2018-02-10T05:18:02.430Z,0.90
2018-02-10T05:20:30.549Z,0.90
2018-02-10T05:22:59.401Z,0.80
2018-02-10T05:25:27.472Z,0.80
2018-02-10T05:27:55.561Z,0.70
2018-02-10T05:30:23.643Z,0.90
2018-02-10T05:32:52.498Z,0.90
2018-02-10T05:35:20.598Z,1.00
2018-02-10T05:37:48.653Z,1.00
2018-02-10T05:40:16.754Z,0.80
2018-02-10T05:42:44.818Z,1.00
2018-02-10T05:45:12.885Z,1.10
2018-02-10T05:47:40.973Z,1.00
2018-02-10T05:50:09.046Z,0.90
2018-02-10T05:52:37.114Z,0.90
2018-02-10T05:55:05.198Z,0.80
2018-02-10T05:57:33.286Z,0.90
2018-02-10T06:00:01.472Z,1.20
2018-02-10T06:02:29.538Z,1.30
2018-02-10T06:04:57.581Z,1.00
2018-02-10T06:07:25.637Z,1.00
2018-02-10T06:09:54.477Z,0.90
2018-02-10T06:12:22.547Z,0.90
2018-02-10T06:14:50.608Z,0.90
2018-02-10T06:17:18.713Z,0.90
2018-02-10T06:19:46.773Z,1.20
2018-02-10T06:22:14.830Z,1.10
2018-02-10T06:24:42.881Z,1.00
2018-02-10T06:27:11.722Z,1.00
2018-02-10T06:29:40.504Z,1.30
2018-02-10T06:32:08.567Z,1.30
2018-02-10T06:34:36.652Z,1.30
2018-02-10T06:37:04.710Z,1.30
2018-02-10T06:39:32.762Z,1.50
2018-02-10T06:42:01.610Z,1.30
2018-02-10T06:44:29.670Z,1.10
2018-02-10T06:46:57.741Z,1.10
2018-02-10T06:49:25.792Z,1.20
2018-02-10T06:51:54.631Z,1.50
2018-02-10T06:54:22.689Z,1.60
2018-02-10T06:56:50.797Z,1.60
2018-02-10T06:59:18.866Z,1.50
2018-02-10T07:01:46.915Z,1.40
2018-02-10T07:04:15.034Z,1.50
2018-02-10T07:06:43.110Z,1.50
2018-02-10T07:09:11.189Z,1.40
2018-02-10T07:11:39.291Z,1.60
2018-02-10T07:14:07.323Z,2.00
2018-02-10T07:16:35.405Z,1.80
2018-02-10T07:19:03.489Z,1.90
2018-02-10T07:21:31.549Z,1.80
2018-02-10T07:23:59.621Z,1.50
2018-02-10T07:26:28.442Z,1.40
2018-02-10T07:28:56.509Z,1.60
2018-02-10T07:31:24.570Z,1.80
2018-02-10T07:33:52.656Z,1.80
2018-02-10T07:36:20.718Z,2.00
2018-02-10T07:38:48.810Z,1.80
2018-02-10T07:41:16.869Z,1.90
2018-02-10T07:43:44.929Z,2.00
2018-02-10T07:46:12.978Z,3.30
2018-02-10T07:48:41.801Z,4.40
2018-02-10T07:51:09.854Z,4.30
2018-02-10T07:53:38.688Z,3.70
2018-02-10T07:56:06.748Z,3.50
2018-02-10T07:58:34.809Z,3.00
2018-02-10T08:01:02.866Z,2.70
2018-02-10T08:03:31.700Z,2.30
2018-02-10T08:05:59.763Z,2.30
2018-02-10T08:08:28.906Z,2.40
2018-02-10T08:10:56.977Z,2.40
2018-02-10T08:13:25.036Z,2.10
2018-02-10T08:15:53.095Z,2.30
2018-02-10T08:18:21.193Z,2.20
2018-02-10T08:20:49.258Z,2.00
2018-02-10T08:23:17.324Z,2.10
2018-02-10T08:25:45.459Z,2.00
2018-02-10T08:28:13.618Z,1.90
2018-02-10T08:30:41.691Z,2.00
2018-02-10T08:33:09.753Z,2.00
2018-02-10T08:35:37.823Z,1.80
2018-02-10T08:38:05.878Z,2.10
2018-02-10T08:40:33.950Z,1.90
2018-02-10T08:43:02.065Z,1.80
2018-02-10T08:45:30.133Z,1.90
2018-02-10T08:47:59.161Z,2.00
2018-02-10T08:50:27.326Z,1.90
2018-02-10T08:52:55.388Z,2.00
2018-02-10T08:55:23.472Z,2.10
2018-02-10T08:57:51.558Z,2.30
2018-02-10T09:00:20.126Z,2.40
2018-02-10T09:02:48.181Z,2.40
2018-02-10T09:05:16.293Z,2.40
2018-02-10T09:07:44.349Z,2.30
2018-02-10T09:10:12.461Z,2.20
2018-02-10T09:12:40.505Z,2.30
2018-02-10T09:15:08.561Z,2.40
2018-02-10T09:17:37.500Z,2.10
2018-02-10T09:20:05.570Z,2.10
2018-02-10T09:22:33.633Z,2.20
2018-02-10T09:25:01.708Z,2.10
2018-02-10T09:27:29.804Z,1.90
2018-02-10T09:29:57.849Z,2.00
2018-02-10T09:32:26.050Z,2.20
2018-02-10T09:34:54.152Z,2.20
2018-02-10T09:37:22.301Z,2.00
2018-02-10T09:39:50.365Z,2.10
2018-02-10T09:42:18.565Z,2.10
2018-02-10T09:44:46.625Z,2.10
2018-02-10T09:47:14.813Z,2.30
2018-02-10T09:49:42.858Z,2.30
2018-02-10T09:52:10.991Z,2.30
2018-02-10T09:54:39.054Z,2.30
2018-02-10T09:57:07.110Z,2.50
2018-02-10T09:59:35.198Z,2.50
2018-02-10T10:02:03.623Z,2.60
2018-02-10T10:04:32.481Z,2.50
2018-02-10T10:07:00.553Z,2.70
2018-02-10T10:09:28.726Z,2.60
2018-02-10T10:11:56.810Z,2.50
2018-02-10T10:14:24.877Z,2.50
2018-02-10T10:16:52.967Z,2.50
2018-02-10T10:19:21.077Z,2.40
2018-02-10T10:21:49.897Z,2.40
2018-02-10T10:24:17.974Z,2.70
2018-02-10T10:26:46.026Z,2.90
2018-02-10T10:29:14.945Z,3.10
2018-02-10T10:31:42.981Z,3.20
2018-02-10T10:34:11.054Z,3.40
2018-02-10T10:36:39.126Z,3.30
2018-02-10T10:39:07.281Z,3.30
2018-02-10T10:41:35.333Z,3.20
2018-02-10T10:44:03.401Z,3.20
2018-02-10T10:46:31.454Z,3.20
2018-02-10T10:49:00.518Z,3.20
2018-02-10T10:51:28.563Z,3.00
2018-02-10T10:53:56.626Z,3.00
2018-02-10T10:56:24.682Z,3.10
2018-02-10T10:58:53.529Z,3.00
2018-02-10T11:01:21.616Z,3.20
2018-02-10T11:03:49.792Z,3.30
2018-02-10T11:06:17.857Z,3.30
2018-02-10T11:08:45.926Z,3.10
2018-02-10T11:11:13.983Z,2.90
2018-02-10T11:13:42.102Z,3.30
2018-02-10T11:16:10.166Z,3.30
2018-02-10T11:18:38.249Z,3.40
2018-02-10T11:21:06.322Z,3.40
2018-02-10T11:23:34.398Z,3.30
2018-02-10T11:26:02.461Z,3.10
2018-02-10T11:28:31.549Z,3.10
2018-02-10T11:31:00.729Z,3.20
2018-02-10T11:33:28.846Z,3.10
2018-02-10T11:35:56.954Z,3.00
2018-02-10T11:38:25.025Z,2.90
2018-02-10T11:40:53.101Z,2.80
2018-02-10T11:43:21.445Z,2.90
2018-02-10T11:45:49.534Z,3.20
2018-02-10T11:48:18.190Z,3.10
2018-02-10T11:50:46.253Z,3.50
2018-02-10T11:53:15.105Z,3.70
2018-02-10T11:55:43.174Z,3.80
2018-02-10T11:58:11.242Z,3.80
2018-02-10T12:00:39.317Z,4.00
2018-02-10T12:03:07.387Z,4.10
2018-02-10T12:05:35.451Z,3.90
2018-02-10T12:08:03.535Z,3.70
2018-02-10T12:10:32.453Z,3.40
2018-02-10T12:13:01.973Z,3.60
2018-02-10T12:15:31.169Z,3.50
2018-02-10T12:17:59.231Z,3.30
2018-02-10T12:20:27.319Z,3.20
2018-02-10T12:22:55.385Z,3.30
2018-02-10T12:25:23.463Z,3.30
2018-02-10T12:27:51.526Z,3.30
2018-02-10T12:30:19.611Z,3.60
2018-02-10T12:32:47.665Z,3.40
2018-02-10T12:35:15.732Z,3.60
2018-02-10T12:37:43.805Z,3.80
2018-02-10T12:40:12.145Z,4.10
2018-02-10T12:42:40.222Z,4.20
2018-02-10T12:45:08.293Z,4.00
2018-02-10T12:50:37.775Z,3.90
2018-02-10T12:53:05.847Z,4.10
2018-02-10T12:55:33.911Z,4.00
2018-02-10T12:58:01.987Z,4.10
2018-02-10T13:00:30.060Z,3.80
2018-02-10T13:02:58.901Z,4.10
2018-02-10T13:05:27.826Z,3.80
2018-02-10T13:07:55.966Z,4.10
2018-02-10T13:10:24.040Z,4.10
2018-02-10T13:12:52.102Z,4.20
2018-02-10T13:15:20.817Z,4.20
2018-02-10T13:17:48.907Z,4.30
2018-02-10T13:20:16.957Z,4.10
2018-02-10T13:22:45.048Z,4.10
2018-02-10T13:25:13.117Z,4.00
2018-02-10T13:27:41.185Z,4.00
2018-02-10T13:30:09.263Z,3.70
2018-02-10T13:32:37.384Z,3.70
2018-02-10T13:35:06.213Z,3.80
2018-02-10T13:37:34.293Z,3.80
2018-02-10T13:40:02.835Z,3.70
2018-02-10T13:42:31.895Z,3.80
2018-02-10T13:44:59.965Z,4.00
2018-02-10T13:47:28.038Z,3.90
2018-02-10T13:49:56.081Z,3.80
2018-02-10T13:52:24.204Z,3.30
2018-02-10T13:54:52.277Z,3.50
2018-02-10T13:57:20.352Z,3.70
2018-02-10T13:59:48.420Z,3.90
2018-02-10T14:02:16.517Z,3.80
2018-02-10T14:04:44.614Z,3.80
2018-02-10T14:07:12.773Z,3.70
2018-02-10T14:09:40.853Z,4.00
2018-02-10T14:12:08.913Z,4.00
2018-02-10T14:14:36.966Z,3.90
2018-02-10T14:17:05.038Z,3.80
2018-02-10T14:19:33.094Z,3.60
2018-02-10T14:22:03.051Z,3.50
2018-02-10T14:24:32.693Z,3.80
2018-02-10T14:27:00.753Z,3.90
2018-02-10T14:29:28.814Z,3.90
2018-02-10T14:31:56.898Z,3.70
2018-02-10T14:34:24.954Z,3.40
2018-02-10T14:36:53.062Z,3.70
2018-02-10T14:39:21.238Z,3.80
2018-02-10T14:41:49.697Z,3.80
2018-02-10T14:44:17.788Z,3.70
2018-02-10T14:46:45.854Z,3.60
2018-02-10T14:49:13.953Z,3.60
2018-02-10T14:51:42.014Z,3.70
2018-02-10T14:54:10.093Z,3.50
2018-02-10T14:56:38.149Z,3.40
2018-02-10T14:59:06.264Z,3.00
2018-02-10T15:01:34.274Z,3.00
2018-02-10T15:04:03.519Z,2.90
2018-02-10T15:06:33.558Z,2.90
2018-02-10T15:09:02.765Z,3.20
2018-02-10T15:11:30.814Z,3.00
2018-02-10T15:13:58.887Z,3.00
2018-02-10T15:16:26.937Z,3.20
2018-02-10T15:18:55.790Z,3.00
2018-02-10T15:21:23.887Z,2.80
2018-02-10T15:23:51.952Z,2.80
2018-02-10T15:26:20.014Z,2.60
2018-02-10T15:28:48.085Z,2.70
2018-02-10T15:31:26.110Z,2.60
2018-02-10T15:34:12.118Z,2.70
2018-02-10T15:36:40.942Z,3.10
2018-02-10T15:39:09.009Z,3.20
2018-02-10T15:41:37.068Z,3.10
2018-02-10T15:44:05.929Z,3.00
2018-02-10T15:46:34.095Z,3.10
2018-02-10T15:49:03.111Z,3.10
2018-02-10T15:51:31.169Z,2.90
2018-02-10T15:53:59.333Z,2.80
2018-02-10T15:56:27.389Z,2.90
2018-02-10T15:58:55.463Z,2.90
2018-02-10T16:01:23.587Z,3.00
2018-02-10T16:03:51.654Z,3.10
2018-02-10T16:06:19.723Z,3.10
2018-02-10T16:08:47.782Z,2.90
2018-02-10T16:11:15.866Z,3.00
2018-02-10T16:13:43.950Z,3.20
2018-02-10T16:16:12.011Z,3.20
2018-02-10T16:18:40.095Z,3.10
2018-02-10T16:21:08.177Z,3.20
2018-02-10T16:23:36.236Z,3.00
2018-02-10T16:26:04.346Z,2.90
2018-02-10T16:28:33.566Z,2.80
2018-02-10T16:31:01.623Z,2.80
2018-02-10T16:33:29.676Z,3.10
2018-02-10T16:35:57.745Z,3.00
2018-02-10T16:38:25.832Z,2.70
2018-02-10T16:40:53.925Z,2.70
2018-02-10T16:43:22.010Z,2.60
2018-02-10T16:45:50.090Z,2.90
2018-02-10T16:48:18.253Z,3.10
2018-02-10T16:50:46.435Z,3.10
2018-02-10T16:53:14.501Z,2.90
2018-02-10T16:55:42.561Z,2.90
2018-02-10T16:58:10.663Z,2.80
2018-02-10T17:00:39.670Z,2.80
2018-02-10T17:03:07.733Z,2.80
2018-02-10T17:05:35.922Z,2.90
2018-02-10T17:08:03.973Z,2.70
2018-02-10T17:10:32.060Z,2.80
2018-02-10T17:13:00.143Z,2.70
2018-02-10T17:15:28.243Z,2.90
2018-02-10T17:17:56.305Z,2.80
2018-02-10T17:20:24.577Z,2.70
2018-02-10T17:22:52.633Z,3.00
2018-02-10T17:25:20.701Z,2.90
2018-02-10T17:27:48.770Z,2.90
2018-02-10T17:30:16.822Z,2.60
2018-02-10T17:32:45.658Z,2.70
2018-02-10T17:35:13.721Z,3.00
2018-02-10T17:37:41.822Z,2.70
2018-02-10T17:40:09.896Z,2.50
2018-02-10T17:42:37.965Z,2.60
2018-02-10T17:45:06.033Z,2.80
2018-02-10T17:47:34.150Z,2.80
2018-02-10T17:50:02.225Z,2.70
2018-02-10T17:52:31.065Z,2.70
2018-02-10T17:54:59.189Z,2.70
2018-02-10T17:57:27.270Z,2.70
2018-02-10T17:59:55.344Z,3.00
2018-02-10T18:02:23.518Z,3.10
2018-02-10T18:04:51.593Z,2.80
2018-02-10T18:07:19.773Z,2.70
2018-02-10T18:09:47.849Z,2.80
2018-02-10T18:12:16.837Z,2.90
2018-02-10T18:14:44.902Z,2.70
2018-02-10T18:17:12.980Z,2.70
2018-02-10T18:19:41.028Z,2.90
2018-02-10T18:22:09.094Z,3.50
2018-02-10T18:24:37.158Z,4.20
2018-02-10T18:27:05.981Z,3.80
2018-02-10T18:29:34.497Z,3.80
2018-02-10T18:32:02.577Z,3.60
2018-02-10T18:34:30.645Z,3.20
2018-02-10T18:36:58.751Z,3.20
2018-02-10T18:39:26.942Z,3.20
2018-02-10T18:41:55.760Z,2.90
2018-02-10T18:44:23.881Z,3.10
2018-02-10T18:46:51.963Z,2.90
2018-02-10T18:49:20.039Z,2.90
2018-02-10T18:51:48.102Z,2.90
2018-02-10T18:54:16.165Z,2.70
2018-02-10T18:56:44.586Z,2.60
2018-02-10T18:59:12.746Z,2.60
2018-02-10T19:01:40.802Z,2.30
2018-02-10T19:04:08.869Z,2.40
2018-02-10T19:06:36.966Z,2.40
2018-02-10T19:09:05.041Z,2.40
2018-02-10T19:11:33.126Z,2.60
2018-02-10T19:14:01.232Z,2.50
2018-02-10T19:16:29.281Z,2.40
2018-02-10T19:18:57.349Z,2.50
2018-02-10T19:21:25.418Z,2.50
2018-02-10T19:23:53.506Z,2.50
2018-02-10T19:26:21.572Z,2.30
2018-02-10T19:28:49.663Z,2.40
2018-02-10T19:31:17.731Z,2.40
2018-02-10T19:33:45.795Z,2.40
2018-02-10T19:36:13.881Z,2.40
2018-02-10T19:38:41.933Z,2.20
2018-02-10T19:41:10.082Z,2.20
2018-02-10T19:43:38.113Z,2.10
2018-02-10T19:46:06.183Z,2.30
2018-02-10T19:48:35.705Z,2.30
2018-02-10T19:51:03.765Z,2.30
2018-02-10T19:53:31.874Z,2.10
2018-02-10T19:55:59.938Z,2.20
2018-02-10T19:58:28.018Z,2.10
2018-02-10T20:00:56.077Z,2.00
2018-02-10T20:03:24.148Z,2.10
2018-02-10T20:05:52.238Z,2.00
2018-02-10T20:08:20.325Z,2.00
2018-02-10T20:10:48.511Z,1.90
2018-02-10T20:13:16.550Z,2.00
2018-02-10T20:15:44.609Z,1.90
2018-02-10T20:18:12.684Z,2.00
2018-02-10T20:20:40.798Z,2.00
2018-02-10T20:23:08.864Z,2.00
2018-02-10T20:25:37.553Z,2.10
2018-02-10T20:28:05.618Z,1.90
2018-02-10T20:30:33.690Z,1.90
2018-02-10T20:33:01.773Z,1.90
2018-02-10T20:35:29.850Z,1.90
2018-02-10T20:37:57.962Z,2.00
2018-02-10T20:40:26.021Z,2.00
2018-02-10T20:42:54.090Z,2.00
2018-02-10T20:45:22.169Z,2.00
2018-02-10T20:47:50.240Z,1.80
2018-02-10T20:50:18.295Z,1.80
2018-02-10T20:52:46.349Z,1.90
2018-02-10T20:55:15.195Z,2.00
2018-02-10T20:57:43.260Z,1.90
2018-02-10T21:00:11.350Z,1.80
2018-02-10T21:02:39.426Z,1.90
2018-02-10T21:05:07.509Z,1.90
2018-02-10T21:07:35.896Z,2.00
2018-02-10T21:10:03.961Z,2.00
2018-02-10T21:12:32.142Z,1.80
2018-02-10T21:15:00.201Z,1.80
2018-02-10T21:17:28.267Z,1.90
2018-02-10T21:19:56.366Z,2.00
2018-02-10T21:22:24.426Z,2.00
2018-02-10T21:24:52.479Z,2.10
2018-02-10T21:27:20.546Z,2.10
2018-02-10T21:29:48.610Z,2.00
2018-02-10T21:32:17.437Z,2.00
2018-02-10T21:34:45.505Z,2.00
2018-02-10T21:37:13.619Z,1.90
2018-02-10T21:39:41.693Z,1.90
2018-02-10T21:42:09.865Z,1.90
2018-02-10T21:44:38.345Z,1.80
2018-02-10T21:47:06.397Z,1.80
2018-02-10T21:49:34.541Z,1.90
2018-02-10T21:52:03.360Z,2.10
2018-02-10T21:54:31.421Z,2.10
2018-02-10T21:57:00.267Z,2.10
2018-02-10T21:59:28.398Z,2.00
2018-02-10T22:01:57.230Z,1.90
2018-02-10T22:04:25.314Z,1.90
2018-02-10T22:06:53.409Z,2.10
2018-02-10T22:09:21.785Z,2.10
2018-02-10T22:11:49.850Z,2.10
2018-02-10T22:14:17.932Z,2.10
2018-02-10T22:16:46.030Z,2.10
2018-02-10T22:19:14.101Z,2.00
2018-02-10T22:21:42.170Z,2.10
2018-02-10T22:24:10.255Z,2.20
2018-02-10T22:26:38.305Z,2.20
2018-02-10T22:29:06.709Z,2.20
2018-02-10T22:31:34.776Z,2.10
2018-02-10T22:34:02.843Z,1.90
2018-02-10T22:36:31.622Z,2.00
2018-02-10T22:38:59.681Z,2.00
2018-02-10T22:41:27.734Z,2.00
2018-02-10T22:43:56.693Z,1.90
2018-02-10T22:46:24.772Z,1.90
2018-02-10T22:48:52.860Z,2.00
2018-02-10T22:51:20.912Z,1.80
2018-02-10T22:53:48.967Z,1.70
2018-02-10T22:56:17.038Z,1.80
2018-02-10T22:58:45.124Z,1.90
2018-02-10T23:01:17.010Z,1.90
2018-02-10T23:03:45.082Z,1.80
2018-02-10T23:06:13.157Z,1.70
2018-02-10T23:08:41.225Z,1.80
2018-02-10T23:11:09.282Z,1.80
2018-02-10T23:13:37.357Z,1.90
2018-02-10T23:16:05.442Z,1.90
2018-02-10T23:18:33.525Z,1.90
2018-02-10T23:21:01.601Z,2.00
2018-02-10T23:23:30.546Z,2.00
2018-02-10T23:25:59.376Z,1.80
2018-02-10T23:28:27.429Z,1.90
2018-02-10T23:30:56.794Z,1.90
2018-02-10T23:33:24.865Z,1.80
2018-02-10T23:35:52.958Z,1.80
2018-02-10T23:38:21.005Z,1.70
2018-02-10T23:40:49.109Z,1.90
2018-02-10T23:43:17.161Z,1.80
2018-02-10T23:45:45.241Z,1.70
2018-02-10T23:48:13.325Z,1.70
2018-02-10T23:50:41.414Z,1.80
2018-02-10T23:53:09.469Z,1.80
2018-02-10T23:55:37.574Z,1.60
2018-02-10T23:58:05.630Z,1.70
